createdAt,value
2023-02-22T00:12:40.679Z,7.10
2023-02-22T00:34:23.899Z,6.80
2023-02-22T00:56:07.918Z,7.80
2023-02-22T01:17:53.721Z,7.10
2023-02-22T01:39:36.771Z,6.90
2023-02-22T02:01:23.866Z,6.90
2023-02-22T02:23:24.403Z,6.20
2023-02-22T02:45:15.005Z,7.00
2023-02-22T03:07:13.426Z,7.50
2023-02-22T03:28:57.616Z,6.90
2023-02-22T03:50:41.137Z,8.30
2023-02-22T04:12:24.895Z,8.50
2023-02-22T04:34:13.321Z,7.50
2023-02-22T04:55:57.740Z,7.90
2023-02-22T05:40:03.207Z,6.20
2023-02-22T06:01:48.980Z,6.40
2023-02-22T06:23:34.834Z,6.70
2023-02-22T06:45:21.085Z,6.40
2023-02-22T07:07:07.118Z,6.90
2023-02-22T07:41:22.984Z,9.70
2023-02-22T08:03:11.166Z,7.30
2023-02-22T08:24:56.899Z,6.40
2023-02-22T08:46:42.749Z,6.40
2023-02-22T09:08:28.523Z,7.00
2023-02-22T09:30:20.402Z,7.60
2023-02-22T09:52:11.615Z,6.90
2023-02-22T10:14:06.490Z,7.20
2023-02-22T10:35:54.997Z,7.40
2023-02-22T10:57:42.414Z,6.90
2023-02-22T11:19:29.989Z,7.40
2023-02-22T11:41:19.542Z,6.70
2023-02-22T12:03:28.966Z,6.90
2023-02-22T12:25:22.900Z,5.70
2023-02-22T12:47:12.059Z,5.50
2023-02-22T13:09:08.502Z,5.90
2023-02-22T13:31:09.047Z,5.00
2023-02-22T13:52:57.178Z,4.90
2023-02-22T14:15:32.690Z,4.20
2023-02-22T14:37:25.141Z,4.30
2023-02-22T14:59:19.643Z,4.40
2023-02-22T15:21:13.472Z,4.90
2023-02-22T15:43:00.009Z,4.30
2023-02-22T16:04:54.566Z,4.30
2023-02-22T16:27:04.701Z,4.90
2023-02-22T16:48:50.415Z,5.20
2023-02-22T17:10:37.058Z,6.40
2023-02-22T17:32:22.826Z,7.40
2023-02-22T17:54:10.359Z,7.60
2023-02-22T18:16:00.246Z,7.90
2023-02-22T18:37:46.203Z,9.90
2023-02-22T18:59:31.936Z,10.20
2023-02-22T19:21:18.304Z,13.20
2023-02-22T19:43:04.079Z,10.80
2023-02-22T20:04:51.406Z,9.00
2023-02-22T20:26:38.998Z,9.90
2023-02-22T20:48:24.885Z,10.40
2023-02-22T21:10:11.421Z,10.90
2023-02-22T21:31:57.718Z,11.70
2023-02-22T21:53:47.067Z,11.90
2023-02-22T22:15:36.966Z,13.10
2023-02-22T22:37:22.680Z,13.80
2023-02-22T22:59:09.871Z,15.90
2023-02-22T23:41:18.605Z,17.00
